Wetterdaten: Woche 09.01.12 - 15.01.12 (KW2)
Datum Zeit Temp. A. Feuchte A. Luftdruck Regen Wind Richtung Taupunkt Windchill Windben
09.01.2012 00:00 3,8 C 82 % 1017,6 hPa 0,0 l/m 7,7 km/h NW 0,9 C 2,6 C 24,9 km/h
09.01.2012 01:00 3,6 C 84 % 1018,1 hPa 0,8 l/m 8,9 km/h W-NW 1,1 C 1,4 C 24,5 km/h
09.01.2012 02:00 3,8 C 84 % 1018,4 hPa 0,0 l/m 10,4 km/h NW 1,2 C 0,4 C 27,4 km/h
09.01.2012 03:00 3,9 C 83 % 1018,7 hPa 0,3 l/m 8,7 km/h NW 1,3 C 1,9 C 25,7 km/h
09.01.2012 04:00 4,0 C 83 % 1018,9 hPa 0,5 l/m 10,3 km/h W-NW 1,4 C 0,8 C 25,3 km/h
09.01.2012 05:00 3,7 C 84 % 1019,8 hPa 0,5 l/m 7,4 km/h N-NW 1,3 C 2,6 C 21,3 km/h
09.01.2012 06:00 3,6 C 84 % 1020,6 hPa 0,5 l/m 6,5 km/h W-NW 1,2 C 3,4 C 20,9 km/h
09.01.2012 07:00 3,4 C 84 % 1021,3 hPa 1,3 l/m 6,6 km/h W-NW 1,0 C 3,1 C 18,1 km/h
09.01.2012 08:00 3,6 C 84 % 1022,0 hPa 0,3 l/m 7,5 km/h NW 1,2 C 2,6 C 23,3 km/h
09.01.2012 09:00 3,7 C 84 % 1022,7 hPa 0,0 l/m 8,6 km/h NW 1,2 C 1,7 C 23,7 km/h
09.01.2012 10:00 4,3 C 83 % 1023,4 hPa 0,0 l/m 11,0 km/h W-NW 1,6 C 0,6 C 27,4 km/h
09.01.2012 11:00 4,6 C 82 % 1023,5 hPa 0,0 l/m 11,3 km/h W 1,7 C 0,9 C 29,8 km/h
09.01.2012 12:00 4,6 C 82 % 1023,8 hPa 0,3 l/m 8,9 km/h NW 1,8 C 2,5 C 24,5 km/h
09.01.2012 13:00 4,7 C 82 % 1023,9 hPa 0,0 l/m 9,6 km/h N-NW 1,8 C 2,0 C 23,7 km/h
09.01.2012 14:00 4,7 C 81 % 1024,5 hPa 0,0 l/m 9,1 km/h NW 1,6 C 2,4 C 22,1 km/h
09.01.2012 15:00 4,3 C 81 % 1024,8 hPa 0,0 l/m 8,1 km/h W 1,4 C 2,8 C 22,1 km/h
09.01.2012 16:00 4,0 C 81 % 1024,9 hPa 0,3 l/m 6,2 km/h NW 1,0 C 3,8 C 20,9 km/h
09.01.2012 17:00 3,9 C 79 % 1025,3 hPa 0,0 l/m 6,4 km/h N-NW 0,6 C 3,8 C 19,3 km/h
09.01.2012 18:00 3,9 C 77 % 1025,6 hPa 0,0 l/m 5,4 km/h NW 0,2 C 3,9 C 16,9 km/h
09.01.2012 19:00 3,9 C 79 % 1025,9 hPa 0,0 l/m 5,5 km/h NW 0,6 C 3,9 C 17,7 km/h
09.01.2012 20:00 3,7 C 83 % 1025,9 hPa 0,5 l/m 5,9 km/h NW 1,1 C 3,5 C 17,3 km/h
09.01.2012 21:00 3,3 C 84 % 1025,7 hPa 1,6 l/m 3,7 km/h N-NW 0,9 C 3,3 C 14,5 km/h
09.01.2012 22:00 3,4 C 85 % 1025,0 hPa 0,8 l/m 4,6 km/h NW 1,1 C 3,4 C 17,3 km/h
09.01.2012 23:00 3,7 C 84 % 1024,4 hPa 0,8 l/m 7,4 km/h W-SW 1,3 C 2,7 C 22,9 km/h
10.01.2012 00:00 3,8 C 85 % 1023,8 hPa 0,5 l/m 6,0 km/h NW 1,5 C 3,6 C 20,1 km/h
10.01.2012 01:00 4,3 C 84 % 1023,3 hPa 0,5 l/m 9,8 km/h W-NW 1,9 C 1,4 C 29,8 km/h
10.01.2012 02:00 4,7 C 83 % 1023,0 hPa 0,0 l/m 9,6 km/h W 2,1 C 2,0 C 29,0 km/h
10.01.2012 03:00 5,0 C 83 % 1022,7 hPa 0,0 l/m 11,0 km/h W-NW 2,3 C 1,4 C 29,4 km/h
10.01.2012 04:00 5,4 C 83 % 1022,0 hPa 0,0 l/m 11,5 km/h NW 2,6 C 1,5 C 30,2 km/h
10.01.2012 05:00 5,8 C 82 % 1021,7 hPa 0,5 l/m 13,8 km/h W 2,9 C 0,7 C 35,4 km/h
10.01.2012 06:00 6,0 C 80 % 1021,5 hPa 0,0 l/m 14,3 km/h W 2,9 C 0,7 C 32,2 km/h
10.01.2012 07:00 5,9 C 81 % 1022,2 hPa 1,0 l/m 13,1 km/h N-NW 2,8 C 1,2 C 33,0 km/h
10.01.2012 08:00 4,8 C 84 % 1023,6 hPa 1,6 l/m 11,3 km/h W-NW 2,3 C 1,1 C 27,4 km/h
10.01.2012 09:00 4,7 C 84 % 1024,6 hPa 0,0 l/m 9,9 km/h N-NW 2,2 C 1,8 C 22,9 km/h
10.01.2012 10:00 5,5 C 80 % 1025,3 hPa 0,0 l/m 12,3 km/h W-NW 2,3 C 1,2 C 29,0 km/h
10.01.2012 11:00 6,1 C 75 % 1026,1 hPa 0,0 l/m 13,3 km/h N 1,9 C 1,3 C 31,4 km/h
10.01.2012 12:00 6,6 C 70 % 1026,4 hPa 0,0 l/m 15,3 km/h NW 1,4 C 0,9 C 36,6 km/h
10.01.2012 13:00 6,4 C 68 % 1027,1 hPa 0,0 l/m 13,0 km/h N-NW 0,9 C 1,9 C 31,4 km/h
10.01.2012 14:00 6,1 C 68 % 1027,8 hPa 0,0 l/m 12,4 km/h N 0,7 C 1,8 C 29,0 km/h
10.01.2012 15:00 6,0 C 68 % 1028,4 hPa 0,0 l/m 9,5 km/h NW 0,6 C 3,5 C 27,8 km/h
10.01.2012 16:00 5,9 C 67 % 1029,0 hPa 0,0 l/m 9,1 km/h NW 0,2 C 3,8 C 25,3 km/h
10.01.2012 17:00 5,9 C 69 % 1029,7 hPa 0,0 l/m 7,2 km/h N-NW 0,5 C 5,2 C 22,1 km/h
10.01.2012 18:00 5,8 C 69 % 1030,4 hPa 0,0 l/m 4,9 km/h N 0,6 C 4,9 C 16,1 km/h
10.01.2012 19:00 5,4 C 69 % 1031,1 hPa 0,0 l/m 0,0 km/h N 0,3 C 5,4 C 0,0 km/h
10.01.2012 20:00 4,5 C 71 % 1031,9 hPa 0,0 l/m 0,0 km/h N -0,2 C 4,5 C 0,0 km/h
10.01.2012 21:00 4,1 C 71 % 1032,1 hPa 0,0 l/m 0,0 km/h N -0,7 C 4,1 C 0,0 km/h
10.01.2012 22:00 3,8 C 73 % 1032,3 hPa 0,0 l/m 0,0 km/h N -0,6 C 3,8 C 0,0 km/h
10.01.2012 23:00 3,4 C 76 % 1032,2 hPa 0,0 l/m 0,0 km/h N -0,4 C 3,4 C 0,0 km/h
11.01.2012 00:00 3,8 C 78 % 1032,0 hPa 0,0 l/m 0,0 km/h N 0,3 C 3,8 C 0,0 km/h
11.01.2012 01:00 4,7 C 77 % 1031,9 hPa 0,0 l/m 0,0 km/h N 1,0 C 4,7 C 0,0 km/h
11.01.2012 02:00 5,3 C 76 % 1031,9 hPa 0,0 l/m 0,0 km/h N 1,4 C 5,3 C 0,0 km/h
11.01.2012 03:00 5,4 C 75 % 1031,8 hPa 0,0 l/m 0,0 km/h N 1,3 C 5,4 C 0,0 km/h
11.01.2012 04:00 5,4 C 74 % 1031,6 hPa 0,0 l/m 0,0 km/h N 1,2 C 5,4 C 0,0 km/h
11.01.2012 05:00 5,5 C 75 % 1031,6 hPa 0,0 l/m 0,0 km/h N 1,4 C 5,5 C 0,0 km/h
11.01.2012 06:00 5,5 C 76 % 1031,4 hPa 0,0 l/m 0,0 km/h N 1,6 C 5,5 C 0,0 km/h
11.01.2012 07:00 5,6 C 75 % 1031,2 hPa 0,0 l/m 0,0 km/h N 1,6 C 5,6 C 0,0 km/h
11.01.2012 08:00 6,1 C 74 % 1031,8 hPa 0,0 l/m 0,0 km/h N 1,7 C 6,1 C 0,0 km/h
11.01.2012 09:00 6,3 C 74 % 1032,2 hPa 0,0 l/m 0,0 km/h N 1,9 C 6,3 C 0,0 km/h
11.01.2012 10:00 7,0 C 71 % 1032,3 hPa 0,0 l/m 0,0 km/h N 2,1 C 7,0 C 0,0 km/h
11.01.2012 11:00 7,3 C 68 % 1031,6 hPa 0,0 l/m 0,0 km/h N 1,8 C 7,3 C 0,0 km/h
11.01.2012 12:00 7,5 C 67 % 1030,9 hPa 0,0 l/m 0,0 km/h N 1,9 C 7,5 C 0,0 km/h
11.01.2012 13:00 7,6 C 68 % 1030,8 hPa 0,0 l/m 0,0 km/h N 2,1 C 7,6 C 0,0 km/h
11.01.2012 14:00 7,7 C 66 % 1030,5 hPa 0,0 l/m 0,0 km/h N 1,8 C 7,7 C 0,0 km/h
11.01.2012 15:00 7,5 C 66 % 1030,6 hPa 0,0 l/m 0,0 km/h N 1,5 C 7,5 C 0,0 km/h
11.01.2012 16:00 7,2 C 66 % 1030,6 hPa 0,0 l/m 0,0 km/h N 1,3 C 7,2 C 0,0 km/h
11.01.2012 17:00 7,2 C 65 % 1030,6 hPa 0,0 l/m 0,0 km/h N 1,0 C 7,2 C 0,0 km/h
11.01.2012 18:00 7,4 C 64 % 1030,7 hPa 0,0 l/m 0,0 km/h N 1,1 C 7,4 C 0,0 km/h
11.01.2012 19:00 7,5 C 63 % 1030,6 hPa 0,0 l/m 0,0 km/h N 1,0 C 7,5 C 0,0 km/h
11.01.2012 20:00 7,4 C 66 % 1030,7 hPa 0,0 l/m 0,0 km/h N 1,4 C 7,4 C 0,0 km/h
11.01.2012 21:00 7,2 C 69 % 1030,7 hPa 0,0 l/m 0,0 km/h N 1,8 C 7,2 C 0,0 km/h
11.01.2012 22:00 6,9 C 70 % 1030,5 hPa 0,0 l/m 0,0 km/h N 1,7 C 6,9 C 0,0 km/h
11.01.2012 23:00 6,6 C 71 % 1030,8 hPa 0,0 l/m 0,0 km/h N 1,7 C 6,6 C 0,0 km/h
12.01.2012 00:00 6,6 C 71 % 1030,7 hPa 0,0 l/m 0,0 km/h N 1,7 C 6,6 C 0,0 km/h
12.01.2012 01:00 6,7 C 71 % 1030,4 hPa 0,0 l/m 0,0 km/h N 1,7 C 6,7 C 0,0 km/h
12.01.2012 02:00 6,8 C 70 % 1030,4 hPa 0,0 l/m 0,0 km/h N 1,7 C 6,8 C 0,0 km/h
12.01.2012 03:00 6,9 C 67 % 1030,3 hPa 0,0 l/m 0,0 km/h N 1,3 C 6,9 C 0,0 km/h
12.01.2012 04:00 6,9 C 66 % 1029,7 hPa 0,0 l/m 0,0 km/h N 1,0 C 6,9 C 0,0 km/h
12.01.2012 05:00 6,8 C 64 % 1029,0 hPa 0,0 l/m 0,0 km/h N 0,3 C 6,8 C 0,0 km/h
12.01.2012 06:00 6,4 C 62 % 1028,9 hPa 0,0 l/m 0,0 km/h N -0,3 C 6,4 C 0,0 km/h
12.01.2012 07:00 5,8 C 65 % 1028,9 hPa 0,0 l/m 0,0 km/h N -0,4 C 5,8 C 0,0 km/h
12.01.2012 08:00 4,7 C 69 % 1028,9 hPa 0,0 l/m 0,0 km/h N -0,4 C 4,7 C 0,0 km/h
12.01.2012 09:00 4,9 C 69 % 1028,5 hPa 0,0 l/m 0,0 km/h N -0,5 C 4,9 C 0,0 km/h
12.01.2012 10:00 6,6 C 62 % 1027,8 hPa 0,0 l/m 0,0 km/h N -0,2 C 6,6 C 0,0 km/h
12.01.2012 11:00 7,5 C 59 % 1026,4 hPa 0,0 l/m 0,0 km/h N -0,1 C 7,5 C 0,0 km/h
12.01.2012 12:00 8,6 C 55 % 1025,0 hPa 0,0 l/m 0,0 km/h N 0,0 C 8,6 C 0,0 km/h
12.01.2012 13:00 9,3 C 53 % 1023,6 hPa 0,0 l/m 0,0 km/h N 0,3 C 9,3 C 0,0 km/h
12.01.2012 14:00 9,4 C 52 % 1022,4 hPa 0,0 l/m 0,0 km/h N -0,0 C 9,4 C 0,0 km/h
12.01.2012 15:00 9,1 C 54 % 1021,5 hPa 0,0 l/m 0,0 km/h N 0,2 C 9,1 C 0,0 km/h
12.01.2012 16:00 7,9 C 57 % 1020,9 hPa 0,0 l/m 0,0 km/h N -0,1 C 7,9 C 0,0 km/h
12.01.2012 17:00 7,3 C 58 % 1020,3 hPa 0,0 l/m 0,0 km/h N -0,4 C 7,3 C 0,0 km/h
12.01.2012 18:00 7,6 C 58 % 1019,4 hPa 0,0 l/m 0,0 km/h N -0,1 C 7,6 C 0,0 km/h
12.01.2012 19:00 7,0 C 61 % 1018,6 hPa 0,0 l/m 0,0 km/h N 0,0 C 7,0 C 0,0 km/h
12.01.2012 20:00 8,3 C 56 % 1017,6 hPa 0,0 l/m 0,0 km/h N -0,1 C 8,3 C 0,0 km/h
12.01.2012 21:00 8,4 C 54 % 1016,9 hPa 0,0 l/m 0,0 km/h N -0,4 C 8,4 C 0,0 km/h
12.01.2012 22:00 8,7 C 52 % 1016,2 hPa 0,0 l/m 0,0 km/h N -0,6 C 8,7 C 0,0 km/h
12.01.2012 23:00 7,0 C 69 % 1016,2 hPa 1,3 l/m 0,0 km/h N 1,6 C 7,0 C 0,4 km/h
13.01.2012 00:00 5,6 C 78 % 1016,4 hPa 0,0 l/m 0,0 km/h N 2,0 C 5,6 C 0,4 km/h
13.01.2012 01:00 5,3 C 78 % 1016,3 hPa 0,0 l/m 0,0 km/h N 1,7 C 5,3 C 0,0 km/h
13.01.2012 02:00 5,4 C 78 % 1016,8 hPa 0,3 l/m 0,0 km/h N 1,8 C 5,4 C 0,0 km/h
13.01.2012 03:00 4,6 C 80 % 1018,0 hPa 1,0 l/m 0,2 km/h N 1,5 C 4,6 C 1,2 km/h
13.01.2012 04:00 4,1 C 79 % 1017,6 hPa 0,0 l/m 0,0 km/h N 0,7 C 4,1 C 0,4 km/h
13.01.2012 05:00 3,9 C 76 % 1017,3 hPa 0,0 l/m 0,0 km/h N 0,1 C 3,9 C 0,0 km/h
13.01.2012 06:00 4,3 C 76 % 1017,7 hPa 0,0 l/m 0,0 km/h N 0,5 C 4,3 C 0,0 km/h
13.01.2012 07:00 4,2 C 76 % 1017,6 hPa 0,0 l/m 0,0 km/h N 0,4 C 4,2 C 0,0 km/h
13.01.2012 08:00 4,0 C 76 % 1017,7 hPa 0,0 l/m 0,0 km/h N 0,0 C 4,0 C 0,0 km/h
13.01.2012 09:00 4,5 C 70 % 1017,9 hPa 0,0 l/m 0,0 km/h N -0,5 C 4,5 C 0,0 km/h
13.01.2012 10:00 5,0 C 67 % 1017,7 hPa 0,0 l/m 0,0 km/h N -0,7 C 5,0 C 0,0 km/h
13.01.2012 11:00 5,1 C 68 % 1017,1 hPa 0,0 l/m 0,0 km/h N -0,3 C 5,1 C 0,0 km/h
13.01.2012 12:00 6,2 C 64 % 1016,1 hPa 0,0 l/m 0,0 km/h N -0,2 C 6,2 C 0,0 km/h
13.01.2012 13:00 5,8 C 64 % 1015,4 hPa 0,0 l/m 0,0 km/h N -0,5 C 5,8 C 0,0 km/h
13.01.2012 14:00 2,3 C 79 % 1016,5 hPa 0,0 l/m 0,0 km/h N -0,9 C 2,3 C 0,8 km/h
13.01.2012 15:00 0,8 C 84 % 1016,3 hPa 0,0 l/m 0,0 km/h N -1,6 C 0,8 C 0,0 km/h
13.01.2012 16:00 1,3 C 84 % 1016,3 hPa 0,0 l/m 0,0 km/h N -1,2 C 1,3 C 0,0 km/h
13.01.2012 17:00 1,4 C 83 % 1016,3 hPa 0,0 l/m 0,0 km/h N -1,3 C 1,4 C 0,0 km/h
13.01.2012 18:00 2,1 C 77 % 1017,0 hPa 0,0 l/m 0,0 km/h N -1,6 C 2,1 C 0,0 km/h
13.01.2012 19:00 2,3 C 72 % 1017,2 hPa 0,3 l/m 0,0 km/h N -2,2 C 2,3 C 0,0 km/h
13.01.2012 20:00 2,2 C 76 % 1017,1 hPa 0,3 l/m 0,0 km/h N -1,7 C 2,2 C 0,0 km/h
13.01.2012 21:00 2,3 C 76 % 1017,0 hPa 0,0 l/m 0,0 km/h N -1,5 C 2,3 C 0,0 km/h
13.01.2012 22:00 1,8 C 80 % 1016,8 hPa 0,3 l/m 0,0 km/h N -1,3 C 1,8 C 0,0 km/h
13.01.2012 23:00 2,1 C 78 % 1017,1 hPa 0,0 l/m 0,0 km/h N -1,4 C 2,1 C 0,0 km/h
14.01.2012 00:00 2,1 C 79 % 1017,2 hPa 0,3 l/m 0,0 km/h N -1,3 C 2,1 C 0,0 km/h
14.01.2012 01:00 2,2 C 76 % 1017,2 hPa 0,0 l/m 0,0 km/h N -1,5 C 2,2 C 0,0 km/h
14.01.2012 02:00 2,2 C 76 % 1017,3 hPa 0,0 l/m 0,0 km/h N -1,5 C 2,2 C 0,0 km/h
14.01.2012 03:00 2,2 C 76 % 1017,1 hPa 0,0 l/m 0,0 km/h N -1,5 C 2,2 C 0,0 km/h
14.01.2012 04:00 2,2 C 75 % 1016,8 hPa 0,0 l/m 0,0 km/h N -1,8 C 2,2 C 0,0 km/h
14.01.2012 05:00 2,2 C 74 % 1016,7 hPa 0,3 l/m 0,0 km/h N -1,9 C 2,2 C 0,0 km/h
14.01.2012 06:00 2,1 C 74 % 1016,5 hPa 0,0 l/m 0,0 km/h N -2,0 C 2,1 C 0,0 km/h
14.01.2012 07:00 2,2 C 74 % 1016,5 hPa 0,0 l/m 0,0 km/h N -1,9 C 2,2 C 0,0 km/h
14.01.2012 08:00 2,2 C 75 % 1017,0 hPa 0,0 l/m 0,0 km/h N -1,9 C 2,2 C 0,0 km/h
14.01.2012 09:00 2,4 C 73 % 1017,5 hPa 0,0 l/m 0,0 km/h N -2,0 C 2,4 C 0,0 km/h
14.01.2012 10:00 2,6 C 72 % 1017,8 hPa 0,3 l/m 0,0 km/h N -1,9 C 2,6 C 0,0 km/h
14.01.2012 11:00 2,8 C 73 % 1017,6 hPa 0,0 l/m 0,0 km/h N -1,6 C 2,8 C 0,0 km/h
14.01.2012 12:00 2,2 C 77 % 1017,6 hPa 0,0 l/m 0,0 km/h N -1,4 C 2,2 C 0,0 km/h
14.01.2012 13:00 2,6 C 71 % 1017,2 hPa 0,0 l/m 0,0 km/h N -2,2 C 2,6 C 0,0 km/h
14.01.2012 14:00 3,0 C 64 % 1017,3 hPa 0,3 l/m 0,0 km/h N -3,1 C 3,0 C 0,0 km/h
14.01.2012 15:00 2,4 C 65 % 1017,5 hPa 0,0 l/m 0,0 km/h N -3,4 C 2,4 C 0,0 km/h
14.01.2012 16:00 2,3 C 67 % 1018,0 hPa 0,3 l/m 0,0 km/h N -3,2 C 2,3 C 0,0 km/h
14.01.2012 17:00 2,0 C 68 % 1018,6 hPa 0,0 l/m 0,0 km/h N -3,3 C 2,0 C 0,0 km/h
14.01.2012 18:00 2,3 C 61 % 1018,9 hPa 0,0 l/m 0,0 km/h N -4,4 C 2,3 C 0,0 km/h
14.01.2012 19:00 1,8 C 66 % 1019,2 hPa 0,0 l/m 0,0 km/h N -3,8 C 1,8 C 0,0 km/h
14.01.2012 20:00 1,9 C 62 % 1019,3 hPa 0,0 l/m 0,0 km/h N -4,5 C 1,9 C 0,0 km/h
14.01.2012 21:00 2,0 C 61 % 1019,6 hPa 0,0 l/m 0,0 km/h N -4,6 C 2,0 C 0,0 km/h
14.01.2012 22:00 1,6 C 63 % 1019,8 hPa 0,0 l/m 0,0 km/h N -4,7 C 1,6 C 0,0 km/h
14.01.2012 23:00 1,2 C 65 % 1019,8 hPa 0,0 l/m 0,0 km/h N -4,6 C 1,2 C 0,0 km/h
15.01.2012 00:00 1,2 C 65 % 1019,7 hPa 0,0 l/m 0,0 km/h N -4,7 C 1,2 C 0,0 km/h
15.01.2012 01:00 1,1 C 63 % 1019,3 hPa 0,0 l/m 0,0 km/h N -5,2 C 1,1 C 0,0 km/h
15.01.2012 02:00 1,2 C 61 % 1019,1 hPa 0,0 l/m 0,0 km/h N -5,5 C 1,2 C 0,0 km/h
15.01.2012 03:00 1,1 C 64 % 1018,8 hPa 0,0 l/m 0,0 km/h N -5,0 C 1,1 C 0,0 km/h
15.01.2012 04:00 0,8 C 69 % 1019,1 hPa 0,0 l/m 0,0 km/h N -4,2 C 0,8 C 0,0 km/h
15.01.2012 05:00 0,6 C 71 % 1019,4 hPa 0,0 l/m 0,0 km/h N -4,0 C 0,6 C 0,0 km/h
15.01.2012 06:00 0,4 C 70 % 1019,9 hPa 0,0 l/m 0,0 km/h N -4,4 C 0,4 C 0,0 km/h
15.01.2012 07:00 0,3 C 69 % 1020,5 hPa 0,0 l/m 0,0 km/h N -4,7 C 0,3 C 0,0 km/h
15.01.2012 08:00 -0,0 C 68 % 1021,2 hPa 0,0 l/m 0,0 km/h N -5,2 C -0,0 C 0,0 km/h
15.01.2012 09:00 0,2 C 67 % 1021,6 hPa 0,0 l/m 0,0 km/h N -5,1 C 0,2 C 0,0 km/h
15.01.2012 10:00 0,6 C 66 % 1021,9 hPa 0,0 l/m 0,0 km/h N -5,1 C 0,6 C 0,0 km/h
15.01.2012 11:00 0,7 C 64 % 1021,6 hPa 0,0 l/m 0,0 km/h N -5,3 C 0,7 C 0,0 km/h
15.01.2012 12:00 0,7 C 65 % 1021,2 hPa 0,0 l/m 0,0 km/h N -5,2 C 0,7 C 0,0 km/h
15.01.2012 13:00 1,0 C 63 % 1020,9 hPa 0,0 l/m 0,0 km/h N -5,4 C 1,0 C 0,0 km/h
15.01.2012 14:00 0,8 C 57 % 1021,1 hPa 0,0 l/m 0,0 km/h N -6,7 C 0,8 C 0,0 km/h
15.01.2012 15:00 0,7 C 54 % 1021,7 hPa 0,0 l/m 0,0 km/h N -7,5 C 0,7 C 0,0 km/h
15.01.2012 16:00 0,7 C 55 % 1021,9 hPa 0,0 l/m 0,0 km/h N -7,4 C 0,7 C 0,0 km/h
15.01.2012 17:00 0,6 C 55 % 1021,9 hPa 0,0 l/m 0,0 km/h N -7,4 C 0,6 C 0,0 km/h
15.01.2012 18:00 0,4 C 57 % 1022,3 hPa 0,0 l/m 0,0 km/h N -7,1 C 0,4 C 0,0 km/h
15.01.2012 19:00 0,3 C 59 % 1022,8 hPa 0,0 l/m 0,0 km/h N -6,7 C 0,3 C 0,0 km/h
15.01.2012 20:00 -0,1 C 65 % 1023,0 hPa 0,0 l/m 0,0 km/h N -6,0 C -0,1 C 0,0 km/h
15.01.2012 21:00 -0,3 C 63 % 1022,9 hPa 0,0 l/m 0,0 km/h N -6,4 C -0,3 C 0,0 km/h
15.01.2012 22:00 -0,7 C 63 % 1023,2 hPa 0,0 l/m 0,0 km/h N -6,9 C -0,7 C 0,0 km/h
15.01.2012 23:00 -0,9 C 61 % 1023,8 hPa 0,0 l/m 0,0 km/h N -7,4 C -0,9 C 0,0 km/h
Min-Datum _ 15.01.12 12.01.12 13.01.12 - 10.01.12 - 15.01.12 15.01.12 10.01.12
_ Min-Zeit 23:15 14:15 13:30 - 18:45 - 15:00 23:00 18:45
Minimum _ -0,9 C 51 % 1015,2 hPa - 0,0 km/h - -7,7 C -0,9 C 0,0 km/h
Max-Datum _ 12.01.12 09.01.12 10.01.12 09.01.12 10.01.12 - 10.01.12 12.01.12 10.01.12
_ Max-Zeit 14:15 07:15 22:00 21:00 12:15 - 06:15 14:00 05:00
Maximum _ 9,6 C 85 % 1032,3 hPa 1,6 l/m 18,6 km/h
NW
- 3,0 C 9,5 C 40,2 km/h
W
Durchschnitt _ 4,2 C 71 % 1023,0 hPa #17,2 l/m 2,3 km/h NW -0,7 C 3,6 C 6,4 km/h